Time;durP1;ratioP1;P1;durP2;ratioP2;P2;SDS_P1;SDS_P2;PMS_P1;PMS_P2;Temp;Humidity;BMP_temperature;BMP_pressure;BME280_temperature;BME280_humidity;BME280_pressure;Samples;Min_cycle;Max_cycle;Signal;HPM_P1;HPM_P2
2022/05/20 00:03:51;;;;;;;4.47;1.80;;;;;;;;;;10332502;28;20470;-42
2022/05/20 00:08:53;;;;;;;14.57;1.60;;;;;;;;;;10331734;28;20406;-43
2022/05/20 00:13:53;;;;;;;2.75;1.80;;;;;;;;;;10332155;28;20036;-43
2022/05/20 00:18:54;;;;;;;2.53;1.35;;;;;;;;;;10331920;28;20026;-43
2022/05/20 00:23:55;;;;;;;2.83;1.42;;;;;;;;;;10331605;28;20701;-43
2022/05/20 00:28:56;;;;;;;2.50;1.40;;;;;;;;;;10331573;28;20471;-42
2022/05/20 00:33:56;;;;;;;9.32;1.70;;;;;;;;;;10331483;28;20031;-43
2022/05/20 00:38:57;;;;;;;5.55;1.48;;;;;;;;;;10330655;28;20031;-43
2022/05/20 00:43:58;;;;;;;16.42;2.45;;;;;;;;;;10331198;28;20382;-42
2022/05/20 00:49:10;;;;;;;3.00;1.58;;;;;;;;;;10330865;28;20494;-42
2022/05/20 00:54:15;;;;;;;2.05;1.25;;;;;;;;;;10313496;28;20035;-42
2022/05/20 00:59:20;;;;;;;5.30;1.90;;;;;;;;;;10330368;28;20033;-42
2022/05/20 01:04:23;;;;;;;2.50;1.50;;;;;;;;;;10313302;28;20034;-41
2022/05/20 01:09:23;;;;;;;2.22;1.40;;;;;;;;;;10312441;28;20117;-42
2022/05/20 01:14:25;;;;;;;5.22;1.42;;;;;;;;;;10330029;28;20593;-42
2022/05/20 01:19:35;;;;;;;2.90;1.48;;;;;;;;;;10329285;28;20030;-43
2022/05/20 01:24:36;;;;;;;1.73;1.38;;;;;;;;;;10311871;28;20057;-42
2022/05/20 01:29:37;;;;;;;3.92;1.40;;;;;;;;;;10329317;28;20117;-42
2022/05/20 01:34:37;;;;;;;3.47;1.23;;;;;;;;;;10329077;28;20026;-42
2022/05/20 01:39:38;;;;;;;3.60;1.52;;;;;;;;;;10328779;28;20040;-42
2022/05/20 01:44:51;;;;;;;6.18;1.50;;;;;;;;;;10328220;28;20088;-42
2022/05/20 01:50:07;;;;;;;4.43;1.50;;;;;;;;;;10327323;28;20025;-42
2022/05/20 01:55:56;;;;;;;7.50;1.77;;;;;;;;;;10307997;28;20030;-41
2022/05/20 02:01:02;;;;;;;3.75;1.60;;;;;;;;;;10312512;28;20026;-42
2022/05/20 02:06:15;;;;;;;3.97;1.48;;;;;;;;;;10310656;28;20441;-42
2022/05/20 02:11:25;;;;;;;1.80;1.50;;;;;;;;;;10311843;28;20034;-42
2022/05/20 02:16:33;;;;;;;1.92;1.40;;;;;;;;;;10311009;28;20507;-42
2022/05/20 02:21:39;;;;;;;5.93;1.45;;;;;;;;;;10310730;28;20072;-42
2022/05/20 02:26:53;;;;;;;2.88;1.50;;;;;;;;;;10309977;28;20490;-42
2022/05/20 02:32:31;;;;;;;2.75;1.50;;;;;;;;;;10327446;28;20038;-42
2022/05/20 02:37:34;;;;;;;;;;;;;;;;;;10327635;28;20034;-42
2022/05/20 02:42:34;;;;;;;2.85;1.48;;;;;;;;;;10327358;28;20290;-42
2022/05/20 02:47:36;;;;;;;1.35;1.23;;;;;;;;;;10327038;28;20037;-44
2022/05/20 02:52:37;;;;;;;2.70;1.38;;;;;;;;;;10326961;28;20121;-42
2022/05/20 02:57:38;;;;;;;1.75;1.40;;;;;;;;;;10327069;28;20126;-42
2022/05/20 03:07:58;;;;;;;2.15;1.27;;;;;;;;;;10295310;28;20054;-41
2022/05/20 03:13:02;;;;;;;2.40;1.42;;;;;;;;;;10303041;28;20022;-41
2022/05/20 03:18:03;;;;;;;7.07;1.38;;;;;;;;;;10333991;28;20479;-43
2022/05/20 03:23:05;;;;;;;3.15;1.30;;;;;;;;;;10333419;28;20137;-42
2022/05/20 03:28:06;;;;;;;7.70;1.58;;;;;;;;;;10333830;28;20100;-42
2022/05/20 03:33:07;;;;;;;1.65;1.20;;;;;;;;;;10333476;28;20360;-42
2022/05/20 03:38:07;;;;;;;2.28;1.30;;;;;;;;;;10333146;28;20407;-42
2022/05/20 03:43:09;;;;;;;4.60;1.40;;;;;;;;;;10333522;28;20038;-43
2022/05/20 03:48:10;;;;;;;3.63;1.30;;;;;;;;;;10316089;28;20041;-42
2022/05/20 03:53:11;;;;;;;5.40;1.30;;;;;;;;;;10332935;28;20050;-42
2022/05/20 03:58:12;;;;;;;5.57;1.25;;;;;;;;;;10330343;28;20121;-42
2022/05/20 04:03:13;;;;;;;7.65;1.60;;;;;;;;;;10319020;28;20500;-42
2022/05/20 04:08:14;;;;;;;3.05;1.38;;;;;;;;;;10332390;28;20042;-42
2022/05/20 04:13:15;;;;;;;4.00;1.30;;;;;;;;;;10331688;28;20117;-42
2022/05/20 04:18:15;;;;;;;1.50;1.10;;;;;;;;;;10331708;28;20067;-42
2022/05/20 04:23:18;;;;;;;4.05;1.42;;;;;;;;;;10331194;28;20050;-43
2022/05/20 04:28:19;;;;;;;2.03;1.38;;;;;;;;;;10331978;28;20038;-41
2022/05/20 04:33:19;;;;;;;2.90;1.30;;;;;;;;;;10331338;28;20066;-42
2022/05/20 04:38:20;;;;;;;6.50;1.40;;;;;;;;;;10331443;28;20030;-42
2022/05/20 04:48:40;;;;;;;1.20;1.10;;;;;;;;;;10340436;28;20041;-41
2022/05/20 04:59:01;;;;;;;4.53;1.27;;;;;;;;;;10326216;28;20852;-42
2022/05/20 05:04:01;;;;;;;4.03;1.30;;;;;;;;;;10328965;28;20038;-41
2022/05/20 05:09:03;;;;;;;7.88;1.50;;;;;;;;;;10326108;28;20033;-43
2022/05/20 05:14:03;;;;;;;5.03;1.90;;;;;;;;;;10329513;28;20126;-43
2022/05/20 05:19:05;;;;;;;9.65;2.97;;;;;;;;;;10332772;28;20068;-42
2022/05/20 05:24:06;;;;;;;6.45;2.67;;;;;;;;;;10320621;28;20046;-42
2022/05/20 05:29:07;;;;;;;10.25;3.45;;;;;;;;;;10322060;28;20479;-42
2022/05/20 05:34:10;;;;;;;12.25;3.47;;;;;;;;;;10326295;28;20045;-42
2022/05/20 05:39:11;;;;;;;11.13;3.75;;;;;;;;;;10325336;28;20389;-42
2022/05/20 05:44:11;;;;;;;11.10;4.28;;;;;;;;;;10306686;28;20046;-41
2022/05/20 05:49:12;;;;;;;9.60;4.43;;;;;;;;;;10314826;28;20037;-42
2022/05/20 05:54:12;;;;;;;15.10;3.70;;;;;;;;;;10305352;28;20034;-42
2022/05/20 05:59:13;;;;;;;36.28;5.20;;;;;;;;;;10297016;28;20105;-43
2022/05/20 06:04:14;;;;;;;39.65;5.50;;;;;;;;;;10328058;28;20046;-41
2022/05/20 06:09:14;;;;;;;54.13;4.90;;;;;;;;;;10327706;28;20096;-42
2022/05/20 06:14:16;;;;;;;29.60;3.83;;;;;;;;;;10300033;28;20475;-41
2022/05/20 06:19:16;;;;;;;13.38;3.42;;;;;;;;;;10295935;28;20026;-43
2022/05/20 06:24:17;;;;;;;21.02;4.00;;;;;;;;;;10310818;28;20062;-41
2022/05/20 06:29:18;;;;;;;13.35;3.47;;;;;;;;;;10287913;28;20048;-41
2022/05/20 06:34:19;;;;;;;9.55;3.42;;;;;;;;;;10262503;28;20027;-41
2022/05/20 06:44:38;;;;;;;9.80;3.30;;;;;;;;;;10296649;28;20038;-41
2022/05/20 06:49:39;;;;;;;13.15;3.72;;;;;;;;;;10318094;28;20031;-41
2022/05/20 06:54:39;;;;;;;8.10;3.35;;;;;;;;;;10300734;28;20177;-41
2022/05/20 06:59:40;;;;;;;12.88;3.33;;;;;;;;;;10313509;28;20030;-41
2022/05/20 07:04:41;;;;;;;8.80;3.00;;;;;;;;;;10325040;28;20438;-41
2022/05/20 07:09:41;;;;;;;12.10;2.95;;;;;;;;;;10338632;28;20034;-41
2022/05/20 07:14:42;;;;;;;8.00;3.10;;;;;;;;;;10338888;28;20026;-41
2022/05/20 07:19:43;;;;;;;9.45;3.08;;;;;;;;;;10339752;28;20033;-41
2022/05/20 07:24:43;;;;;;;6.03;3.13;;;;;;;;;;10339097;28;20529;-41
2022/05/20 07:29:44;;;;;;;5.93;2.60;;;;;;;;;;10339558;28;20026;-41
2022/05/20 07:34:46;;;;;;;5.88;2.78;;;;;;;;;;10339076;28;20049;-41
2022/05/20 07:39:46;;;;;;;5.85;2.50;;;;;;;;;;10339331;28;20034;-41
2022/05/20 07:44:47;;;;;;;5.88;2.75;;;;;;;;;;10338917;28;20038;-41
2022/05/20 07:49:48;;;;;;;4.70;2.55;;;;;;;;;;10335745;28;20402;-41
2022/05/20 07:54:48;;;;;;;6.13;2.67;;;;;;;;;;10332912;28;20062;-41
2022/05/20 07:59:51;;;;;;;5.93;2.47;;;;;;;;;;10332723;28;20402;-41
2022/05/20 08:05:01;;;;;;;6.35;2.65;;;;;;;;;;10332042;28;20169;-41
2022/05/20 08:10:10;;;;;;;2.50;2.10;;;;;;;;;;10316069;28;20118;-41
2022/05/20 08:15:13;;;;;;;3.58;2.30;;;;;;;;;;10331991;28;20113;-41
2022/05/20 08:20:22;;;;;;;4.68;2.22;;;;;;;;;;10331811;28;20046;-41
2022/05/20 08:25:25;;;;;;;6.10;2.65;;;;;;;;;;10331675;28;20038;-41
2022/05/20 08:30:27;;;;;;;4.03;2.63;;;;;;;;;;10331141;28;20068;-41
2022/05/20 08:35:27;;;;;;;7.05;2.50;;;;;;;;;;10331468;28;20543;-41
2022/05/20 08:40:44;;;;;;;5.35;2.40;;;;;;;;;;10330649;28;20038;-41
2022/05/20 08:45:44;;;;;;;6.63;2.10;;;;;;;;;;10314748;28;20121;-41
2022/05/20 08:50:52;;;;;;;7.78;2.67;;;;;;;;;;10330981;28;20023;-41
2022/05/20 08:55:53;;;;;;;9.63;2.73;;;;;;;;;;10330331;28;20026;-41
2022/05/20 09:00:53;;;;;;;19.58;3.53;;;;;;;;;;10330285;28;20553;-41
2022/05/20 09:06:14;;;;;;;19.08;3.10;;;;;;;;;;10329863;28;20113;-41
2022/05/20 09:11:17;;;;;;;20.00;3.33;;;;;;;;;;10312836;28;20026;-41
2022/05/20 09:16:31;;;;;;;9.43;2.30;;;;;;;;;;10328979;28;20150;-41
2022/05/20 09:21:43;;;;;;;11.35;2.65;;;;;;;;;;10329857;28;20045;-41
2022/05/20 09:26:50;;;;;;;9.55;3.00;;;;;;;;;;10328801;28;20438;-41
2022/05/20 09:32:00;;;;;;;6.30;2.10;;;;;;;;;;10312480;28;20049;-41
2022/05/20 09:37:25;;;;;;;15.75;2.15;;;;;;;;;;10328342;28;20038;-41
2022/05/20 09:42:29;;;;;;;8.27;1.98;;;;;;;;;;10328515;28;20077;-41
2022/05/20 09:47:50;;;;;;;8.57;2.42;;;;;;;;;;10328874;28;20029;-41
2022/05/20 09:52:59;;;;;;;6.72;2.53;;;;;;;;;;10328463;28;20034;-41
2022/05/20 09:58:14;;;;;;;3.92;2.22;;;;;;;;;;10327765;28;20033;-41
2022/05/20 10:03:30;;;;;;;5.90;2.10;;;;;;;;;;10328323;28;20529;-41
2022/05/20 10:09:27;;;;;;;7.63;2.28;;;;;;;;;;10327676;28;20073;-40
2022/05/20 10:14:56;;;;;;;6.60;2.53;;;;;;;;;;10327202;28;20033;-41
2022/05/20 10:20:21;;;;;;;6.97;2.47;;;;;;;;;;10273277;28;20050;-41
2022/05/20 10:25:34;;;;;;;5.85;2.00;;;;;;;;;;10313884;28;20125;-41
2022/05/20 10:36:33;;;;;;;3.30;2.10;;;;;;;;;;10315358;28;20050;-41
2022/05/20 10:41:52;;;;;;;4.38;2.20;;;;;;;;;;10326845;28;20084;-41
2022/05/20 10:52:35;;;;;;;3.20;2.00;;;;;;;;;;10327202;28;20129;-41
2022/05/20 10:58:09;;;;;;;5.63;2.20;;;;;;;;;;10326354;28;20045;-41
2022/05/20 11:03:53;;;;;;;3.55;1.83;;;;;;;;;;10300987;28;20057;-41
2022/05/20 11:09:19;;;;;;;8.05;3.13;;;;;;;;;;10315460;28;20050;-41
2022/05/20 11:14:22;;;;;;;5.00;2.35;;;;;;;;;;10326818;28;20030;-41
2022/05/20 11:19:58;;;;;;;5.60;2.30;;;;;;;;;;10326394;28;20036;-41
2022/05/20 11:25:17;;;;;;;4.80;2.50;;;;;;;;;;10249560;28;20035;-41
2022/05/20 11:30:41;;;;;;;5.18;2.42;;;;;;;;;;10250818;28;20484;-41
2022/05/20 11:36:03;;;;;;;6.32;2.85;;;;;;;;;;10252126;28;20158;-41
2022/05/20 11:41:25;;;;;;;7.72;3.10;;;;;;;;;;10252218;28;20037;-41
2022/05/20 11:46:59;;;;;;;9.80;2.38;;;;;;;;;;10252930;28;20035;-41
2022/05/20 11:52:32;;;;;;;4.82;2.60;;;;;;;;;;10252864;28;20070;-41
2022/05/20 11:57:39;;;;;;;5.97;2.50;;;;;;;;;;10241704;29;20062;-41
2022/05/20 12:02:48;;;;;;;6.28;2.40;;;;;;;;;;10251421;29;20039;-41
2022/05/20 12:07:49;;;;;;;5.22;2.38;;;;;;;;;;10250274;28;20384;-41
2022/05/20 12:13:26;;;;;;;4.78;2.33;;;;;;;;;;10251842;28;20038;-41
2022/05/20 12:24:32;;;;;;;5.63;2.70;;;;;;;;;;10286153;28;20047;-41
2022/05/20 12:29:37;;;;;;;6.25;2.58;;;;;;;;;;10245046;29;20070;-41
2022/05/20 12:34:41;;;;;;;5.47;2.50;;;;;;;;;;10265673;23;20068;-40
2022/05/20 12:39:50;;;;;;;7.72;2.92;;;;;;;;;;10371900;28;20062;-41
2022/05/20 12:44:52;;;;;;;8.95;2.70;;;;;;;;;;10371193;28;20038;-41
2022/05/20 12:50:26;;;;;;;12.20;2.97;;;;;;;;;;10377164;28;20031;-40
2022/05/20 12:55:37;;;;;;;7.85;2.60;;;;;;;;;;10370848;28;20450;-41
2022/05/20 13:00:48;;;;;;;10.30;2.75;;;;;;;;;;10353973;28;20030;-41
2022/05/20 13:05:51;;;;;;;4.30;2.60;;;;;;;;;;10370516;28;20060;-41
2022/05/20 13:10:53;;;;;;;11.18;3.05;;;;;;;;;;10377730;28;20033;-41
2022/05/20 13:16:01;;;;;;;10.00;3.22;;;;;;;;;;10352471;28;20378;-41
2022/05/20 13:21:05;;;;;;;;;;;;;;;;;;10373163;28;20072;-41
2022/05/20 13:26:23;;;;;;;6.70;3.00;;;;;;;;;;10369506;28;19925;-41
2022/05/20 13:31:25;;;;;;;3.85;2.53;;;;;;;;;;10371013;28;20026;-41
2022/05/20 13:36:36;;;;;;;9.05;2.67;;;;;;;;;;10369211;28;20042;-41
2022/05/20 13:41:39;;;;;;;7.40;2.80;;;;;;;;;;10393552;28;20503;-41
2022/05/20 13:52:12;;;;;;;11.77;2.60;;;;;;;;;;10379643;28;20504;-41
2022/05/20 13:57:41;;;;;;;12.02;3.20;;;;;;;;;;10392309;28;20481;-41
2022/05/20 14:02:52;;;;;;;10.60;2.40;;;;;;;;;;10358082;28;20060;-40
2022/05/20 14:07:57;;;;;;;11.73;2.95;;;;;;;;;;10373531;28;20042;-41
2022/05/20 14:13:07;;;;;;;6.60;2.53;;;;;;;;;;10381517;28;20507;-40
2022/05/20 14:18:24;;;;;;;10.20;2.50;;;;;;;;;;10369246;28;20053;-41
2022/05/20 14:23:27;;;;;;;6.82;2.30;;;;;;;;;;10367759;28;20042;-41
2022/05/20 14:28:46;;;;;;;8.20;2.65;;;;;;;;;;10369024;28;20030;-41
2022/05/20 14:33:52;;;;;;;11.13;2.25;;;;;;;;;;10367871;28;20109;-41
2022/05/20 14:38:55;;;;;;;7.28;2.05;;;;;;;;;;10384753;28;20512;-41
2022/05/20 14:44:08;;;;;;;11.50;2.10;;;;;;;;;;10366796;28;20030;-42
2022/05/20 14:49:13;;;;;;;8.82;2.28;;;;;;;;;;10368144;28;20025;-41
2022/05/20 14:54:15;;;;;;;5.78;2.55;;;;;;;;;;10367236;28;20033;-41
2022/05/20 14:59:34;;;;;;;7.63;1.92;;;;;;;;;;10372193;28;20492;-41
2022/05/20 15:04:34;;;;;;;5.05;2.20;;;;;;;;;;10375139;28;20040;-41
2022/05/20 15:09:36;;;;;;;4.80;1.90;;;;;;;;;;10403283;28;20049;-41
2022/05/20 15:14:37;;;;;;;5.63;2.30;;;;;;;;;;10388970;28;20370;-40
2022/05/20 15:19:37;;;;;;;6.03;2.80;;;;;;;;;;10361807;28;20022;-41
2022/05/20 15:24:43;;;;;;;7.07;2.53;;;;;;;;;;10374898;28;20038;-41
2022/05/20 15:29:43;;;;;;;5.63;2.55;;;;;;;;;;10381184;28;20060;-41
2022/05/20 15:34:54;;;;;;;7.82;2.65;;;;;;;;;;10374230;28;20056;-41
2022/05/20 15:40:00;;;;;;;10.43;2.88;;;;;;;;;;10375810;28;20586;-41
2022/05/20 15:45:01;;;;;;;9.88;2.83;;;;;;;;;;10350317;28;20063;-41
2022/05/20 15:50:02;;;;;;;8.35;2.40;;;;;;;;;;10376184;28;20175;-41
2022/05/20 15:55:27;;;;;;;11.70;2.80;;;;;;;;;;10396973;28;20501;-40
2022/05/20 16:00:28;;;;;;;6.13;2.35;;;;;;;;;;10392464;28;20041;-40
2022/05/20 16:05:28;;;;;;;8.38;2.35;;;;;;;;;;10384813;28;20042;-40
2022/05/20 16:10:33;;;;;;;6.93;2.60;;;;;;;;;;10396374;28;20053;-40
2022/05/20 16:15:35;;;;;;;9.95;2.55;;;;;;;;;;10371464;28;20037;-40
2022/05/20 16:20:39;;;;;;;7.38;2.40;;;;;;;;;;10372239;28;20489;-41
2022/05/20 16:25:39;;;;;;;5.68;2.28;;;;;;;;;;10400854;28;20076;-40
2022/05/20 16:30:40;;;;;;;4.88;2.30;;;;;;;;;;10369808;28;20038;-40
2022/05/20 16:35:40;;;;;;;4.95;2.47;;;;;;;;;;10393189;28;20030;-41
2022/05/20 16:40:41;;;;;;;4.80;1.95;;;;;;;;;;10383190;28;20033;-41
2022/05/20 16:45:42;;;;;;;5.30;2.13;;;;;;;;;;10388901;28;20041;-40
2022/05/20 16:50:43;;;;;;;5.32;1.88;;;;;;;;;;10382578;28;20464;-41
2022/05/20 16:55:44;;;;;;;3.47;2.20;;;;;;;;;;10369638;28;20041;-40
2022/05/20 17:06:06;;;;;;;2.38;1.88;;;;;;;;;;10390152;28;20048;-40
2022/05/20 17:11:08;;;;;;;8.18;1.80;;;;;;;;;;10377211;28;20029;-40
2022/05/20 17:16:08;;;;;;;2.30;1.50;;;;;;;;;;10392837;28;20044;-40
2022/05/20 17:24:21;;;;;;;4.75;2.28;;;;;;;;;;10380650;28;20092;-41
2022/05/20 17:26:30;;;;;;;6.03;1.98;;;;;;;;;;10371679;28;20447;-40
2022/05/20 17:31:30;;;;;;;5.82;1.90;;;;;;;;;;10384714;28;20052;-41
2022/05/20 17:36:31;;;;;;;12.57;1.75;;;;;;;;;;10356508;28;20499;-41
2022/05/20 17:41:38;;;;;;;4.07;1.27;;;;;;;;;;10358278;28;20604;-40
2022/05/20 17:46:39;;;;;;;2.57;1.70;;;;;;;;;;10369607;28;20029;-41
2022/05/20 17:51:40;;;;;;;5.43;1.95;;;;;;;;;;10369479;28;20410;-40
2022/05/20 17:56:41;;;;;;;8.35;2.15;;;;;;;;;;10368776;28;20030;-41
2022/05/20 18:01:42;;;;;;;5.22;1.80;;;;;;;;;;10368724;28;20026;-40
2022/05/20 18:06:43;;;;;;;5.13;2.20;;;;;;;;;;10377864;28;20034;-40
2022/05/20 18:12:09;;;;;;;4.65;1.92;;;;;;;;;;10406930;28;20091;-40
2022/05/20 18:17:06;;;;;;;2.83;1.80;;;;;;;;;;10380435;28;20042;-40
2022/05/20 18:22:08;;;;;;;9.02;2.42;;;;;;;;;;10390034;28;20396;-40
2022/05/20 18:27:14;;;;;;;3.25;1.90;;;;;;;;;;10373669;28;20026;-40
2022/05/20 18:32:20;;;;;;;5.40;1.95;;;;;;;;;;10365354;28;20038;-40
2022/05/20 18:42:40;;;;;;;5.75;1.85;;;;;;;;;;10370758;28;20101;-40
2022/05/20 18:47:42;;;;;;;4.68;2.15;;;;;;;;;;10354489;28;20034;-41
2022/05/20 18:52:43;;;;;;;5.43;2.10;;;;;;;;;;10379972;28;20060;-40
2022/05/20 18:57:43;;;;;;;5.13;1.60;;;;;;;;;;10367858;28;20033;-40
2022/05/20 19:02:44;;;;;;;7.32;2.20;;;;;;;;;;10378689;28;20037;-40
2022/05/20 19:07:45;;;;;;;5.53;2.15;;;;;;;;;;10379193;28;20600;-41
2022/05/20 19:12:46;;;;;;;8.82;1.92;;;;;;;;;;10369972;28;20045;-40
2022/05/20 19:17:46;;;;;;;4.30;1.50;;;;;;;;;;10362764;28;20029;-40
2022/05/20 19:22:47;;;;;;;9.57;2.13;;;;;;;;;;10357490;28;20034;-41
2022/05/20 19:27:47;;;;;;;9.60;2.00;;;;;;;;;;10358270;28;20034;-40
2022/05/20 19:32:48;;;;;;;8.90;2.15;;;;;;;;;;10348690;28;20040;-42
2022/05/20 19:37:50;;;;;;;10.77;2.38;;;;;;;;;;10344135;28;20053;-40
2022/05/20 19:42:50;;;;;;;6.88;1.67;;;;;;;;;;10347884;28;20061;-40
2022/05/20 19:47:51;;;;;;;8.50;2.13;;;;;;;;;;10388972;28;20037;-41
2022/05/20 19:52:51;;;;;;;11.45;2.10;;;;;;;;;;10373733;28;20030;-40
2022/05/20 20:03:26;;;;;;;5.50;1.60;;;;;;;;;;10370018;28;20038;-40
2022/05/20 20:08:27;;;;;;;4.10;1.83;;;;;;;;;;10374207;28;20037;-41
2022/05/20 20:13:30;;;;;;;5.50;2.00;;;;;;;;;;10388293;28;20030;-40
2022/05/20 20:18:31;;;;;;;3.13;1.80;;;;;;;;;;10372741;28;20022;-40
2022/05/20 20:28:51;;;;;;;8.43;2.20;;;;;;;;;;10372390;28;20030;-40
2022/05/20 20:33:51;;;;;;;3.30;1.80;;;;;;;;;;10373627;28;20487;-40
2022/05/20 20:38:54;;;;;;;6.78;1.80;;;;;;;;;;10372058;28;20463;-40
2022/05/20 20:43:54;;;;;;;3.80;1.60;;;;;;;;;;10372722;28;20037;-41
2022/05/20 20:48:57;;;;;;;4.72;1.70;;;;;;;;;;10372902;28;20486;-40
2022/05/20 20:53:58;;;;;;;2.55;1.40;;;;;;;;;;10371741;28;20029;-41
2022/05/20 20:59:00;;;;;;;2.80;1.58;;;;;;;;;;10371917;28;20061;-40
2022/05/20 21:04:01;;;;;;;2.75;1.75;;;;;;;;;;10371139;28;20033;-41
2022/05/20 21:09:03;;;;;;;4.13;1.55;;;;;;;;;;10372463;28;20470;-41
2022/05/20 21:14:04;;;;;;;3.75;1.45;;;;;;;;;;10371234;28;20402;-40
2022/05/20 21:19:04;;;;;;;2.60;1.52;;;;;;;;;;10355262;28;20033;-41
2022/05/20 21:24:05;;;;;;;4.38;1.40;;;;;;;;;;10331999;28;20034;-40
2022/05/20 21:29:06;;;;;;;3.15;1.70;;;;;;;;;;10334301;28;20035;-41
2022/05/20 21:34:06;;;;;;;2.88;1.50;;;;;;;;;;10340960;28;20466;-41
2022/05/20 21:39:07;;;;;;;4.95;1.40;;;;;;;;;;10337422;28;20535;-40
2022/05/20 21:44:09;;;;;;;2.47;1.40;;;;;;;;;;10355501;28;20044;-42
2022/05/20 21:49:10;;;;;;;3.03;1.40;;;;;;;;;;10330652;28;20023;-42
2022/05/20 21:54:10;;;;;;;5.53;1.50;;;;;;;;;;10362082;28;20133;-42
2022/05/20 21:59:12;;;;;;;5.63;1.60;;;;;;;;;;10369066;28;20026;-41
2022/05/20 22:09:32;;;;;;;6.50;1.52;;;;;;;;;;10396458;28;20033;-41
2022/05/20 22:14:33;;;;;;;3.67;1.58;;;;;;;;;;10380454;28;20022;-41
2022/05/20 22:19:34;;;;;;;4.75;1.80;;;;;;;;;;10384217;28;20486;-40
2022/05/20 22:24:34;;;;;;;4.35;2.10;;;;;;;;;;10382127;28;20472;-41
2022/05/20 22:29:37;;;;;;;3.15;1.90;;;;;;;;;;10375636;28;20040;-41
2022/05/20 22:34:39;;;;;;;5.28;1.73;;;;;;;;;;10365169;28;20050;-41
2022/05/20 22:39:40;;;;;;;6.20;2.03;;;;;;;;;;10380335;28;20084;-41
2022/05/20 22:44:41;;;;;;;3.92;2.00;;;;;;;;;;10366167;28;20041;-41
2022/05/20 22:49:42;;;;;;;6.53;2.35;;;;;;;;;;10367593;28;20620;-41
2022/05/20 23:00:02;;;;;;;16.88;2.20;;;;;;;;;;10363361;28;20022;-43
2022/05/20 23:05:03;;;;;;;31.10;2.97;;;;;;;;;;10364873;28;20497;-43
2022/05/20 23:10:04;;;;;;;7.07;2.45;;;;;;;;;;10392715;28;20049;-42
2022/05/20 23:15:06;;;;;;;9.85;2.22;;;;;;;;;;10402804;28;20112;-42
2022/05/20 23:20:07;;;;;;;22.02;3.35;;;;;;;;;;10372256;28;20095;-42
2022/05/20 23:25:08;;;;;;;9.88;2.58;;;;;;;;;;10374871;28;20105;-42
2022/05/20 23:30:10;;;;;;;17.92;2.72;;;;;;;;;;10377235;28;20488;-43
2022/05/20 23:35:11;;;;;;;10.63;2.60;;;;;;;;;;10397712;28;20521;-42
2022/05/20 23:40:12;;;;;;;4.85;2.22;;;;;;;;;;10379521;28;20054;-42
2022/05/20 23:45:13;;;;;;;9.43;2.53;;;;;;;;;;10374245;28;20105;-42
2022/05/20 23:50:15;;;;;;;13.43;2.58;;;;;;;;;;10385168;28;20034;-42
